Time;durP1;ratioP1;P1;durP2;ratioP2;P2;SDS_P1;SDS_P2;PMS_P1;PMS_P2;Temp;Humidity;BMP_temperature;BMP_pressure;BME280_temperature;BME280_humidity;BME280_pressure;Samples;Min_cycle;Max_cycle;Signal;HPM_P1;HPM_P2
2023/08/01 00:01:36;;;;;;;2.42;2.22;;;20.40;99.90;;;;;;5149174;27;20373;-64
2023/08/01 00:04:03;;;;;;;3.90;2.00;;;20.40;99.90;;;;;;5153231;27;20259;-64
2023/08/01 00:06:30;;;;;;;2.72;2.00;;;20.40;99.90;;;;;;5153841;27;20291;-64
2023/08/01 00:08:57;;;;;;;1.70;1.60;;;20.40;99.90;;;;;;5147853;27;20270;-64
2023/08/01 00:11:24;;;;;;;1.50;1.40;;;20.40;99.90;;;;;;5135073;27;20230;-64
2023/08/01 00:13:51;;;;;;;1.83;1.63;;;20.50;99.90;;;;;;5152665;27;20195;-64
2023/08/01 00:16:18;;;;;;;1.83;1.73;;;20.40;99.90;;;;;;5145203;27;20634;-64
2023/08/01 00:18:47;;;;;;;2.20;2.00;;;20.60;99.90;;;;;;5153517;27;20547;-64
2023/08/01 00:21:14;;;;;;;2.05;1.85;;;20.40;99.90;;;;;;5153177;27;20203;-64
2023/08/01 00:23:41;;;;;;;2.10;1.83;;;20.40;99.90;;;;;;5147858;27;20255;-64
2023/08/01 00:26:08;;;;;;;1.70;1.60;;;20.40;99.90;;;;;;5150467;27;20217;-64
2023/08/01 00:28:35;;;;;;;2.55;2.03;;;20.40;99.90;;;;;;5131771;27;20305;-64
2023/08/01 00:31:06;;;;;;;1.98;1.88;;;20.40;99.90;;;;;;5148440;27;20218;-64
2023/08/01 00:33:34;;;;;;;2.47;2.10;;;20.40;99.90;;;;;;5151568;27;20220;-64
2023/08/01 00:36:02;;;;;;;2.05;1.60;;;20.40;99.90;;;;;;5146662;27;20530;-63
2023/08/01 00:38:29;;;;;;;2.13;1.90;;;20.40;99.90;;;;;;5132635;27;20199;-64
2023/08/01 00:40:56;;;;;;;3.03;1.83;;;20.40;99.90;;;;;;5152288;27;20227;-64
2023/08/01 00:43:23;;;;;;;1.80;1.70;;;20.30;99.90;;;;;;5150557;27;20649;-64
2023/08/01 00:45:51;;;;;;;1.83;1.60;;;20.40;99.90;;;;;;5132102;27;20304;-64
2023/08/01 00:48:19;;;;;;;2.15;1.95;;;20.40;99.90;;;;;;5151456;27;20297;-64
2023/08/01 00:50:47;;;;;;;1.80;1.70;;;20.30;99.90;;;;;;5151036;27;20718;-64
2023/08/01 00:53:15;;;;;;;2.05;1.88;;;20.30;99.90;;;;;;5151452;27;20194;-64
2023/08/01 00:55:43;;;;;;;2.40;1.85;;;20.30;99.90;;;;;;5153245;27;20187;-64
2023/08/01 00:58:10;;;;;;;1.90;1.80;;;20.30;99.90;;;;;;5146764;27;20569;-63
2023/08/01 01:00:38;;;;;;;2.13;1.90;;;20.30;99.90;;;;;;5152572;27;20198;-64
2023/08/01 01:03:05;;;;;;;2.03;1.92;;;20.40;99.90;;;;;;5148975;27;20629;-64
2023/08/01 01:05:37;;;;;;;1.92;1.83;;;20.30;99.90;;;;;;5125877;27;20190;-65
2023/08/01 01:08:05;;;;;;;1.77;1.67;;;20.30;99.90;;;;;;5134348;27;20195;-64
2023/08/01 01:10:33;;;;;;;2.47;1.83;;;20.30;99.90;;;;;;5134879;27;20243;-64
2023/08/01 01:13:00;;;;;;;1.88;1.77;;;20.40;99.90;;;;;;5145691;27;20194;-64
2023/08/01 01:15:27;;;;;;;1.90;1.80;;;20.30;99.90;;;;;;5153517;27;20194;-64
2023/08/01 01:17:55;;;;;;;2.20;2.08;;;20.30;99.90;;;;;;5150750;27;20224;-64
2023/08/01 01:20:24;;;;;;;2.13;1.95;;;20.30;99.90;;;;;;5146454;27;20594;-64
2023/08/01 01:22:54;;;;;;;1.85;1.70;;;20.30;99.90;;;;;;5133457;27;20208;-64
2023/08/01 01:25:23;;;;;;;1.75;1.65;;;20.30;99.90;;;;;;5151694;27;20265;-64
2023/08/01 01:27:54;;;;;;;1.88;1.77;;;20.30;99.90;;;;;;5147585;27;20353;-64
2023/08/01 01:30:22;;;;;;;4.03;1.75;;;20.30;99.90;;;;;;5152393;27;20194;-64
2023/08/01 01:32:50;;;;;;;2.00;1.80;;;20.30;99.90;;;;;;5148435;27;20239;-63
2023/08/01 01:35:17;;;;;;;1.67;1.40;;;20.40;99.90;;;;;;5152076;27;20285;-64
2023/08/01 01:37:44;;;;;;;1.60;1.50;;;20.40;99.90;;;;;;5152398;27;20194;-64
2023/08/01 01:40:12;;;;;;;1.70;1.40;;;20.40;99.90;;;;;;5147671;27;20201;-64
2023/08/01 01:42:39;;;;;;;1.88;1.70;;;20.40;99.90;;;;;;5151773;27;20186;-64
2023/08/01 01:45:07;;;;;;;2.10;1.90;;;20.40;99.90;;;;;;5133423;27;20199;-64
2023/08/01 01:47:34;;;;;;;4.95;2.08;;;20.40;99.90;;;;;;5147601;27;20233;-64
2023/08/01 01:50:01;;;;;;;1.67;1.58;;;20.40;99.90;;;;;;5150722;27;20259;-64
2023/08/01 01:52:28;;;;;;;2.47;1.67;;;20.50;99.90;;;;;;5152379;27;20209;-64
2023/08/01 01:54:55;;;;;;;2.35;2.15;;;20.40;99.90;;;;;;5125275;27;20206;-64
2023/08/01 01:57:24;;;;;;;1.50;1.40;;;20.50;99.90;;;;;;5149680;27;20511;-64
2023/08/01 01:59:51;;;;;;;1.98;1.55;;;20.50;99.90;;;;;;5133223;27;20206;-64
2023/08/01 02:02:18;;;;;;;2.72;1.88;;;20.50;99.90;;;;;;5129244;27;20203;-64
2023/08/01 02:04:47;;;;;;;3.25;2.03;;;20.50;99.90;;;;;;5147632;27;20195;-64
2023/08/01 02:07:15;;;;;;;3.08;1.83;;;20.50;99.90;;;;;;5152236;27;20258;-64
2023/08/01 02:09:42;;;;;;;2.38;1.58;;;20.50;99.90;;;;;;5129387;27;20198;-64
2023/08/01 02:12:13;;;;;;;2.42;1.75;;;20.50;99.90;;;;;;5131693;27;20200;-64
2023/08/01 02:14:42;;;;;;;2.15;1.98;;;20.40;99.90;;;;;;5133828;27;20204;-64
2023/08/01 02:17:09;;;;;;;2.00;1.70;;;20.50;99.90;;;;;;5145577;27;20669;-64
2023/08/01 02:19:36;;;;;;;1.90;1.80;;;20.50;99.90;;;;;;5131164;27;20191;-64
2023/08/01 02:22:04;;;;;;;3.83;1.85;;;20.50;99.90;;;;;;5122306;27;20206;-64
2023/08/01 02:24:31;;;;;;;2.55;2.13;;;20.40;99.90;;;;;;5145191;27;20199;-64
2023/08/01 02:26:58;;;;;;;2.47;2.28;;;20.40;99.90;;;;;;5150630;27;20210;-64
2023/08/01 02:29:25;;;;;;;2.00;1.90;;;20.40;99.90;;;;;;5151810;27;20199;-64
2023/08/01 02:31:54;;;;;;;1.95;1.85;;;20.40;99.90;;;;;;5146646;27;20247;-65
2023/08/01 02:34:21;;;;;;;1.67;1.58;;;20.30;99.90;;;;;;5150546;27;20186;-64
2023/08/01 02:36:48;;;;;;;1.80;1.70;;;20.30;99.90;;;;;;5152446;27;20194;-64
2023/08/01 02:39:15;;;;;;;1.90;1.80;;;20.30;99.90;;;;;;5147683;27;20202;-64
2023/08/01 02:41:43;;;;;;;1.60;1.50;;;20.30;99.90;;;;;;5151994;27;20239;-64
2023/08/01 02:44:10;;;;;;;2.67;1.92;;;20.30;99.90;;;;;;5151082;27;20530;-64
2023/08/01 02:46:37;;;;;;;2.65;2.00;;;20.40;99.90;;;;;;5141264;27;20234;-64
2023/08/01 02:49:05;;;;;;;2.20;2.00;;;20.40;99.90;;;;;;5150092;27;20549;-64
2023/08/01 02:51:32;;;;;;;2.00;1.90;;;20.40;99.90;;;;;;5149266;27;20721;-64
2023/08/01 02:53:59;;;;;;;1.95;1.85;;;20.40;99.90;;;;;;5146377;27;20194;-64
2023/08/01 02:56:27;;;;;;;2.80;1.98;;;20.30;99.90;;;;;;5151932;27;20198;-65
2023/08/01 02:58:55;;;;;;;4.60;2.10;;;20.30;99.90;;;;;;5150517;27;20228;-64
2023/08/01 03:01:22;;;;;;;2.00;1.90;;;20.30;99.90;;;;;;5143908;27;20201;-64
2023/08/01 03:03:49;;;;;;;2.42;1.85;;;20.30;99.90;;;;;;5149826;27;20222;-64
2023/08/01 03:06:18;;;;;;;1.92;1.83;;;20.30;99.90;;;;;;5148051;27;20194;-64
2023/08/01 03:08:45;;;;;;;2.05;1.88;;;20.30;99.90;;;;;;5148103;27;20591;-64
2023/08/01 03:11:12;;;;;;;2.30;1.67;;;20.30;99.90;;;;;;5146276;27;20194;-63
2023/08/01 03:13:39;;;;;;;1.40;1.30;;;20.30;99.90;;;;;;5146710;27;20212;-64
2023/08/01 03:16:06;;;;;;;1.88;1.77;;;20.30;99.90;;;;;;5147265;27;20191;-64
2023/08/01 03:18:33;;;;;;;3.38;1.70;;;20.30;99.90;;;;;;5132854;27;20213;-64
2023/08/01 03:21:03;;;;;;;1.27;1.27;;;20.30;99.90;;;;;;5143971;27;20222;-64
2023/08/01 03:23:32;;;;;;;1.58;1.48;;;20.30;99.90;;;;;;5144567;27;20190;-64
2023/08/01 03:25:59;;;;;;;1.52;1.35;;;20.30;99.90;;;;;;5151136;27;20879;-64
2023/08/01 03:28:27;;;;;;;3.60;1.50;;;20.30;99.90;;;;;;5139650;27;20305;-64
2023/08/01 03:30:54;;;;;;;2.17;2.00;;;20.30;99.90;;;;;;5150736;27;20563;-64
2023/08/01 03:33:22;;;;;;;1.85;1.75;;;20.40;99.90;;;;;;5139979;27;20277;-64
2023/08/01 03:35:49;;;;;;;2.60;2.00;;;20.30;99.90;;;;;;5146037;27;20278;-64
2023/08/01 03:38:16;;;;;;;1.63;1.52;;;20.40;99.90;;;;;;5132080;27;20222;-64
2023/08/01 03:40:44;;;;;;;1.73;1.63;;;20.30;99.90;;;;;;5149309;27;20219;-64
2023/08/01 03:43:11;;;;;;;2.13;2.00;;;20.30;99.90;;;;;;5128806;27;20203;-64
2023/08/01 03:45:39;;;;;;;1.92;1.83;;;20.30;99.90;;;;;;5132185;27;20205;-64
2023/08/01 03:48:06;;;;;;;2.28;2.08;;;20.30;99.90;;;;;;5144650;27;20899;-64
2023/08/01 03:50:33;;;;;;;1.77;1.65;;;20.30;99.90;;;;;;5131950;27;20232;-64
2023/08/01 03:53:00;;;;;;;2.38;1.70;;;20.30;99.90;;;;;;5150569;27;20220;-64
2023/08/01 03:55:27;;;;;;;2.00;1.90;;;20.30;99.90;;;;;;5146309;27;20188;-64
2023/08/01 03:57:55;;;;;;;2.20;1.98;;;20.30;99.90;;;;;;5150118;27;20223;-64
2023/08/01 04:00:24;;;;;;;2.78;1.90;;;20.30;99.90;;;;;;5150435;27;20182;-64
2023/08/01 04:02:51;;;;;;;1.70;1.60;;;20.30;99.90;;;;;;5125613;27;20237;-64
2023/08/01 04:05:19;;;;;;;1.80;1.70;;;20.20;99.90;;;;;;5143774;27;20592;-64
2023/08/01 04:07:46;;;;;;;2.25;2.08;;;20.30;99.90;;;;;;5150564;27;20207;-64
2023/08/01 04:10:13;;;;;;;2.40;1.98;;;20.30;99.90;;;;;;5147318;27;20645;-64
2023/08/01 04:12:41;;;;;;;3.33;2.00;;;20.30;99.90;;;;;;5148106;27;20239;-64
2023/08/01 04:15:11;;;;;;;2.55;2.15;;;20.30;99.90;;;;;;5147464;27;20205;-64
2023/08/01 04:17:38;;;;;;;2.72;1.90;;;20.30;99.90;;;;;;5148643;27;20198;-64
2023/08/01 04:20:06;;;;;;;2.40;2.20;;;20.20;99.90;;;;;;5149863;27;20557;-64
2023/08/01 04:22:33;;;;;;;3.50;2.28;;;20.20;99.90;;;;;;5146741;27;20766;-64
2023/08/01 04:25:02;;;;;;;2.10;1.90;;;20.20;99.90;;;;;;5153091;27;20194;-64
2023/08/01 04:27:29;;;;;;;2.22;2.08;;;20.20;99.90;;;;;;5153213;27;20302;-64
2023/08/01 04:29:56;;;;;;;3.00;2.72;;;20.20;99.90;;;;;;5149018;27;20259;-64
2023/08/01 04:32:25;;;;;;;3.17;2.50;;;20.10;99.90;;;;;;5152727;27;20190;-64
2023/08/01 04:34:52;;;;;;;3.25;2.40;;;20.10;99.90;;;;;;5152949;27;20218;-64
2023/08/01 04:37:20;;;;;;;2.45;2.25;;;20.10;99.90;;;;;;5149402;27;20247;-64
2023/08/01 04:39:48;;;;;;;3.08;2.30;;;20.10;99.90;;;;;;5153961;27;20590;-64
2023/08/01 04:42:15;;;;;;;2.20;2.00;;;20.00;99.90;;;;;;5150824;27;20612;-64
2023/08/01 04:44:42;;;;;;;2.65;2.20;;;20.10;99.90;;;;;;5150492;27;20211;-64
2023/08/01 04:47:09;;;;;;;4.57;2.75;;;20.00;99.90;;;;;;5153202;27;20665;-64
2023/08/01 04:49:37;;;;;;;2.50;2.30;;;20.00;99.90;;;;;;5146067;27;20658;-64
2023/08/01 04:52:05;;;;;;;3.35;2.30;;;20.10;99.90;;;;;;5153324;27;20239;-64
2023/08/01 04:54:32;;;;;;;2.70;2.30;;;20.00;99.90;;;;;;5153725;27;20702;-64
2023/08/01 04:56:59;;;;;;;3.25;2.40;;;20.00;99.90;;;;;;5148068;27;20740;-64
2023/08/01 04:59:26;;;;;;;2.40;2.20;;;20.10;99.90;;;;;;5153014;27;20191;-64
2023/08/01 05:01:53;;;;;;;3.28;2.70;;;20.00;99.90;;;;;;5153196;27;20198;-64
2023/08/01 05:04:20;;;;;;;2.88;2.60;;;20.00;99.90;;;;;;5147252;27;20230;-64
2023/08/01 05:06:49;;;;;;;3.08;2.67;;;20.00;99.90;;;;;;5145893;27;20190;-64
2023/08/01 05:09:16;;;;;;;4.28;2.80;;;20.00;99.90;;;;;;5152084;27;20618;-64
2023/08/01 05:11:43;;;;;;;3.20;1.90;;;20.00;99.90;;;;;;5148671;27;20587;-64
2023/08/01 05:14:10;;;;;;;2.50;2.28;;;20.00;99.90;;;;;;5153082;27;20214;-64
2023/08/01 05:16:37;;;;;;;2.42;2.28;;;20.00;99.90;;;;;;5152930;27;20216;-64
2023/08/01 05:19:04;;;;;;;2.13;2.00;;;20.00;99.90;;;;;;5147194;27;20271;-64
2023/08/01 05:21:31;;;;;;;2.50;2.30;;;20.00;99.90;;;;;;5153009;27;20546;-64
2023/08/01 05:23:59;;;;;;;2.70;2.50;;;20.00;99.90;;;;;;5147652;27;20190;-64
2023/08/01 05:26:26;;;;;;;2.80;2.30;;;20.00;99.90;;;;;;5151977;27;20285;-64
2023/08/01 05:28:53;;;;;;;3.58;2.60;;;19.90;99.90;;;;;;5151803;27;20238;-64
2023/08/01 05:31:20;;;;;;;3.70;2.53;;;19.90;99.90;;;;;;5147700;27;20182;-64
2023/08/01 05:33:47;;;;;;;2.53;2.10;;;19.90;99.90;;;;;;5152301;27;20236;-64
2023/08/01 05:36:14;;;;;;;3.50;2.58;;;20.00;99.90;;;;;;5133242;27;20195;-64
2023/08/01 05:38:41;;;;;;;2.10;2.00;;;19.90;99.90;;;;;;5129737;27;20191;-64
2023/08/01 05:41:09;;;;;;;2.70;2.42;;;19.90;99.90;;;;;;5152791;27;20226;-64
2023/08/01 05:43:37;;;;;;;2.47;2.28;;;20.00;99.90;;;;;;5152410;27;20609;-64
2023/08/01 05:46:04;;;;;;;2.92;2.30;;;20.00;99.90;;;;;;5147354;27;20205;-64
2023/08/01 05:48:31;;;;;;;2.35;2.13;;;20.00;99.90;;;;;;5152416;27;20215;-64
2023/08/01 05:50:58;;;;;;;3.42;2.78;;;19.90;99.90;;;;;;5133625;27;20533;-64
2023/08/01 05:53:27;;;;;;;2.47;2.00;;;20.00;99.90;;;;;;5149915;27;20287;-65
2023/08/01 05:55:54;;;;;;;2.40;2.20;;;20.00;99.90;;;;;;5149833;27;20244;-64
2023/08/01 05:58:22;;;;;;;2.50;2.30;;;20.00;99.90;;;;;;5148364;27;20186;-64
2023/08/01 06:00:49;;;;;;;4.30;2.65;;;20.00;99.90;;;;;;5150128;27;20194;-64
2023/08/01 06:03:17;;;;;;;2.20;2.00;;;20.00;99.90;;;;;;5149093;27;20227;-64
2023/08/01 06:05:44;;;;;;;2.63;2.05;;;20.10;99.90;;;;;;5126205;27;20710;-65
2023/08/01 06:08:13;;;;;;;1.70;1.60;;;20.10;99.90;;;;;;5122161;27;20219;-61
2023/08/01 06:10:40;;;;;;;3.10;2.25;;;20.10;99.90;;;;;;5149156;27;20190;-61
2023/08/01 06:13:07;;;;;;;3.53;2.22;;;20.10;99.90;;;;;;5144099;27;20191;-61
2023/08/01 06:15:35;;;;;;;2.33;2.13;;;20.10;99.90;;;;;;5150065;27;20233;-61
2023/08/01 06:18:03;;;;;;;2.05;1.92;;;20.10;99.90;;;;;;5149256;27;20702;-62
2023/08/01 06:20:33;;;;;;;2.50;2.30;;;20.10;99.90;;;;;;5141940;27;20182;-62
2023/08/01 06:23:00;;;;;;;2.60;2.40;;;20.10;99.90;;;;;;5144789;27;20342;-62
2023/08/01 06:25:27;;;;;;;4.85;2.58;;;20.10;99.90;;;;;;5147853;27;20357;-62
2023/08/01 06:27:54;;;;;;;5.20;2.58;;;20.10;99.90;;;;;;5141619;27;20622;-63
2023/08/01 06:30:21;;;;;;;2.92;2.63;;;20.10;99.90;;;;;;5147415;27;20421;-62
2023/08/01 06:32:50;;;;;;;4.32;3.00;;;20.10;99.90;;;;;;5143100;27;20221;-62
2023/08/01 06:35:17;;;;;;;4.47;2.72;;;20.10;99.90;;;;;;5138588;27;20238;-62
2023/08/01 06:37:44;;;;;;;5.38;2.88;;;20.10;99.90;;;;;;5149289;27;20214;-62
2023/08/01 06:40:11;;;;;;;3.45;2.60;;;20.10;99.90;;;;;;5148934;27;20213;-62
2023/08/01 06:42:38;;;;;;;3.22;2.78;;;20.10;99.90;;;;;;5127415;27;20206;-62
2023/08/01 06:45:06;;;;;;;4.47;3.10;;;20.10;99.90;;;;;;5149708;27;20389;-62
2023/08/01 06:47:33;;;;;;;3.95;3.00;;;20.10;99.90;;;;;;5146611;27;20298;-62
2023/08/01 06:50:02;;;;;;;2.88;2.67;;;20.10;99.90;;;;;;5147033;27;20225;-62
2023/08/01 06:52:29;;;;;;;4.30;3.53;;;20.10;99.90;;;;;;5148510;27;20258;-62
2023/08/01 06:54:56;;;;;;;3.83;3.22;;;20.00;99.90;;;;;;5145807;27;20225;-62
2023/08/01 06:57:23;;;;;;;4.70;3.45;;;20.00;99.90;;;;;;5140958;27;20205;-62
2023/08/01 06:59:50;;;;;;;4.85;3.50;;;20.00;99.90;;;;;;5145851;27;20630;-62
2023/08/01 07:02:17;;;;;;;5.55;3.20;;;20.00;99.90;;;;;;5142602;27;20187;-62
2023/08/01 07:04:44;;;;;;;4.18;3.50;;;19.90;99.90;;;;;;5117052;27;20199;-62
2023/08/01 07:07:13;;;;;;;5.57;3.63;;;19.90;99.90;;;;;;5140190;27;20216;-62
2023/08/01 07:09:40;;;;;;;5.10;4.05;;;19.90;99.90;;;;;;5145148;27;20217;-62
2023/08/01 07:12:08;;;;;;;5.78;4.15;;;19.90;99.90;;;;;;5148901;27;20222;-62
2023/08/01 07:14:35;;;;;;;6.47;3.72;;;19.90;99.90;;;;;;5140013;27;20194;-62
2023/08/01 07:17:03;;;;;;;3.85;3.42;;;19.90;99.90;;;;;;5141729;27;20198;-61
2023/08/01 07:19:30;;;;;;;4.93;3.13;;;19.90;99.90;;;;;;5148790;27;20483;-62
2023/08/01 07:21:57;;;;;;;7.18;3.28;;;19.90;99.90;;;;;;5143638;27;20587;-62
2023/08/01 07:24:25;;;;;;;3.72;2.92;;;19.90;99.90;;;;;;5144087;27;20282;-62
2023/08/01 07:26:52;;;;;;;4.93;3.70;;;19.90;99.90;;;;;;5149399;27;20202;-62
2023/08/01 07:29:19;;;;;;;5.15;3.53;;;19.90;99.90;;;;;;5146275;27;20681;-62
2023/08/01 07:31:47;;;;;;;6.38;3.38;;;19.90;99.90;;;;;;5134445;27;20317;-62
2023/08/01 07:34:14;;;;;;;4.00;3.60;;;19.80;99.90;;;;;;5129901;27;20301;-62
2023/08/01 07:36:42;;;;;;;5.80;3.50;;;19.80;99.90;;;;;;5139078;27;20214;-62
2023/08/01 07:39:09;;;;;;;7.60;3.45;;;19.80;99.90;;;;;;5142811;27;20191;-62
2023/08/01 07:41:38;;;;;;;6.93;3.72;;;19.80;99.90;;;;;;5129927;27;20564;-62
2023/08/01 07:44:05;;;;;;;8.43;4.10;;;19.80;99.90;;;;;;5143717;27;20277;-62
2023/08/01 07:46:32;;;;;;;8.23;3.90;;;19.80;99.90;;;;;;5138863;27;20618;-62
2023/08/01 07:49:00;;;;;;;10.02;3.42;;;19.80;99.90;;;;;;5146423;27;20256;-62
2023/08/01 07:51:27;;;;;;;6.25;4.03;;;19.80;99.90;;;;;;5147427;27;20315;-62
2023/08/01 07:53:55;;;;;;;5.03;3.90;;;19.80;99.90;;;;;;5140172;27;20190;-62
2023/08/01 07:56:22;;;;;;;4.72;3.13;;;19.70;99.90;;;;;;5147333;27;20190;-61
2023/08/01 07:58:51;;;;;;;4.22;3.63;;;19.70;99.90;;;;;;5150292;27;20183;-62
2023/08/01 08:01:18;;;;;;;4.57;3.22;;;19.70;99.90;;;;;;5146026;27;20215;-62
2023/08/01 08:03:45;;;;;;;7.05;3.35;;;19.70;99.90;;;;;;5147845;27;20238;-61
2023/08/01 08:06:12;;;;;;;5.97;3.42;;;19.70;99.90;;;;;;5147717;27;20235;-62
2023/08/01 08:08:39;;;;;;;5.07;3.50;;;19.70;99.90;;;;;;5135536;27;20218;-62
2023/08/01 08:11:06;;;;;;;4.43;3.25;;;19.70;99.90;;;;;;5152369;27;20229;-61
2023/08/01 08:13:33;;;;;;;4.15;3.28;;;19.70;99.90;;;;;;5152137;27;20190;-62
2023/08/01 08:16:02;;;;;;;4.22;3.10;;;19.70;99.90;;;;;;5144736;27;20282;-62
2023/08/01 08:18:29;;;;;;;3.80;2.97;;;19.70;99.90;;;;;;5150914;27;20178;-62
2023/08/01 08:20:56;;;;;;;3.97;3.58;;;19.70;99.90;;;;;;5145735;27;20199;-62
2023/08/01 08:23:23;;;;;;;5.20;3.83;;;19.70;99.90;;;;;;5144332;27;20279;-61
2023/08/01 08:25:50;;;;;;;3.60;3.03;;;19.70;99.90;;;;;;5152399;27;20251;-63
2023/08/01 08:28:29;;;;;;;4.13;3.47;;;19.70;99.90;;;;;;5151657;27;20219;-62
2023/08/01 08:30:56;;;;;;;3.45;3.15;;;19.70;99.90;;;;;;5148974;27;20557;-62
2023/08/01 08:33:25;;;;;;;5.18;3.58;;;19.70;99.90;;;;;;5133294;27;20202;-62
2023/08/01 08:35:52;;;;;;;9.27;3.50;;;19.70;99.90;;;;;;5148704;27;20696;-63
2023/08/01 08:38:20;;;;;;;4.22;3.78;;;19.70;99.90;;;;;;5148087;27;20273;-62
2023/08/01 08:40:57;;;;;;;4.63;3.30;;;19.70;99.90;;;;;;5152031;27;20198;-62
2023/08/01 08:43:24;;;;;;;5.20;3.75;;;19.70;99.90;;;;;;5143899;27;20215;-63
2023/08/01 08:45:54;;;;;;;6.88;3.72;;;19.60;99.90;;;;;;5148625;27;20226;-63
2023/08/01 08:48:21;;;;;;;4.00;3.60;;;19.60;99.90;;;;;;5151413;27;20213;-62
2023/08/01 08:50:51;;;;;;;4.50;3.33;;;19.60;99.90;;;;;;5147886;27;20717;-62
2023/08/01 08:53:18;;;;;;;3.60;3.10;;;19.60;99.90;;;;;;5148343;27;20199;-62
2023/08/01 08:55:46;;;;;;;6.28;3.67;;;19.70;99.90;;;;;;5149865;27;20862;-63
2023/08/01 08:58:14;;;;;;;3.58;3.28;;;19.70;99.90;;;;;;5142783;27;20728;-63
2023/08/01 09:00:41;;;;;;;4.07;3.33;;;19.80;99.90;;;;;;5146705;27;20247;-62
2023/08/01 09:03:08;;;;;;;6.85;3.55;;;19.80;99.90;;;;;;5140671;27;20797;-62
2023/08/01 09:05:40;;;;;;;4.07;3.20;;;19.90;99.90;;;;;;5139603;27;20241;-62
2023/08/01 09:08:16;;;;;;;3.85;3.22;;;19.90;99.90;;;;;;5148616;27;20270;-62
2023/08/01 09:10:43;;;;;;;3.70;3.22;;;19.90;99.90;;;;;;5150559;27;20214;-62
2023/08/01 09:13:10;;;;;;;5.35;3.20;;;20.00;99.90;;;;;;5146673;27;20277;-63
2023/08/01 09:15:38;;;;;;;2.97;2.53;;;20.00;99.90;;;;;;5132517;27;20610;-62
2023/08/01 09:18:08;;;;;;;3.00;2.70;;;20.00;99.90;;;;;;5150347;27;20198;-63
2023/08/01 09:20:41;;;;;;;4.43;2.70;;;20.10;99.90;;;;;;5146155;27;20203;-62
2023/08/01 09:23:11;;;;;;;4.93;2.80;;;20.10;99.90;;;;;;5149317;27;20198;-62
2023/08/01 09:25:39;;;;;;;3.63;3.22;;;20.10;99.90;;;;;;5146257;27;20642;-62
2023/08/01 09:28:17;;;;;;;3.05;2.75;;;20.10;99.90;;;;;;5143426;27;20224;-62
2023/08/01 09:30:48;;;;;;;3.33;3.03;;;20.10;99.90;;;;;;5147208;27;20239;-63
2023/08/01 09:33:15;;;;;;;2.95;2.75;;;20.10;99.90;;;;;;5147848;27;20631;-62
2023/08/01 09:35:44;;;;;;;4.93;2.95;;;20.10;99.90;;;;;;5142308;27;20269;-63
2023/08/01 09:38:14;;;;;;;2.83;2.63;;;20.10;99.90;;;;;;5136096;27;20195;-63
2023/08/01 09:40:42;;;;;;;3.10;2.80;;;20.10;99.90;;;;;;5139157;27;20190;-63
2023/08/01 09:43:09;;;;;;;4.10;2.90;;;20.10;99.90;;;;;;5146410;27;20194;-63
2023/08/01 09:45:36;;;;;;;4.10;3.33;;;20.10;99.90;;;;;;5146078;27;20199;-63
2023/08/01 09:48:03;;;;;;;2.72;2.53;;;20.10;99.90;;;;;;5145534;27;20239;-63
2023/08/01 09:50:30;;;;;;;4.40;2.47;;;20.10;99.90;;;;;;5149743;27;20211;-63
2023/08/01 09:53:08;;;;;;;3.45;2.65;;;20.10;99.90;;;;;;5147675;27;20375;-63
2023/08/01 09:55:38;;;;;;;3.03;2.75;;;20.20;99.90;;;;;;5143016;27;20205;-62
2023/08/01 09:58:07;;;;;;;2.95;2.72;;;20.20;99.90;;;;;;5149157;27;20194;-63
2023/08/01 10:00:34;;;;;;;5.63;3.20;;;20.20;99.90;;;;;;5143275;27;20657;-63
2023/08/01 10:03:02;;;;;;;3.28;2.70;;;20.20;99.90;;;;;;5145920;27;20230;-63
2023/08/01 10:05:31;;;;;;;2.85;2.55;;;20.20;99.90;;;;;;5146894;27;20533;-63
2023/08/01 10:08:00;;;;;;;3.83;2.80;;;20.20;99.90;;;;;;5149090;27;20254;-63
2023/08/01 10:10:28;;;;;;;3.45;2.95;;;20.20;99.90;;;;;;5143040;27;20648;-63
2023/08/01 10:12:57;;;;;;;2.63;2.20;;;20.20;99.90;;;;;;5149097;27;20267;-63
2023/08/01 10:15:25;;;;;;;2.95;2.65;;;20.20;99.90;;;;;;5149623;27;20202;-62
2023/08/01 10:17:53;;;;;;;10.95;2.83;;;20.30;99.90;;;;;;5144615;27;20190;-63
2023/08/01 10:20:22;;;;;;;3.33;2.97;;;20.30;99.90;;;;;;5147282;27;20619;-63
2023/08/01 10:22:51;;;;;;;2.72;2.20;;;20.30;99.90;;;;;;5147744;27;20247;-62
2023/08/01 10:25:21;;;;;;;2.53;2.42;;;20.30;99.90;;;;;;5145766;27;20202;-62
2023/08/01 10:28:00;;;;;;;3.10;2.80;;;20.30;99.90;;;;;;5126524;27;20207;-62
2023/08/01 10:30:28;;;;;;;2.40;2.20;;;20.30;99.90;;;;;;5143346;27;20201;-62
2023/08/01 10:32:57;;;;;;;4.28;2.63;;;20.30;99.90;;;;;;5147497;27;20226;-63
2023/08/01 10:35:42;;;;;;;3.63;2.67;;;20.30;99.90;;;;;;5149383;27;20194;-63
2023/08/01 10:38:11;;;;;;;3.65;2.67;;;20.30;99.90;;;;;;5144469;27;20251;-62
2023/08/01 10:40:40;;;;;;;2.90;2.60;;;20.20;99.90;;;;;;5146190;27;20625;-63
2023/08/01 10:43:21;;;;;;;2.05;1.95;;;20.30;99.90;;;;;;5128190;27;20243;-62
2023/08/01 10:45:48;;;;;;;2.58;2.42;;;20.30;99.90;;;;;;5119576;27;20256;-62
2023/08/01 10:48:15;;;;;;;4.70;2.47;;;20.30;99.90;;;;;;5141185;27;20214;-63
2023/08/01 10:50:43;;;;;;;4.10;2.63;;;20.30;99.90;;;;;;5144086;27;20225;-63
2023/08/01 10:53:11;;;;;;;4.82;2.60;;;20.30;99.90;;;;;;5140238;27;20653;-63
2023/08/01 10:55:43;;;;;;;3.45;2.50;;;20.30;99.90;;;;;;5148887;27;20278;-63
2023/08/01 10:58:12;;;;;;;4.45;2.97;;;20.30;99.90;;;;;;5148701;27;20244;-63
2023/08/01 11:00:39;;;;;;;2.15;2.05;;;20.30;99.90;;;;;;5125305;27;20282;-63
2023/08/01 11:03:06;;;;;;;4.32;2.42;;;20.30;99.90;;;;;;5145045;27;20404;-63
2023/08/01 11:05:33;;;;;;;4.75;2.63;;;20.30;99.90;;;;;;5125051;27;20630;-63
2023/08/01 11:08:01;;;;;;;4.38;2.50;;;20.30;99.90;;;;;;5142839;27;20194;-63
2023/08/01 11:10:30;;;;;;;2.63;2.40;;;20.20;99.90;;;;;;5144269;27;20613;-62
2023/08/01 11:12:57;;;;;;;2.67;2.47;;;20.20;99.90;;;;;;5147743;27;20206;-62
2023/08/01 11:15:26;;;;;;;2.95;2.40;;;20.20;99.90;;;;;;5144440;27;20271;-62
2023/08/01 11:17:54;;;;;;;2.50;2.30;;;20.20;99.90;;;;;;5146949;27;20210;-62
2023/08/01 11:20:23;;;;;;;2.75;2.28;;;20.20;99.90;;;;;;5147905;27;20198;-62
2023/08/01 11:22:53;;;;;;;2.75;2.55;;;20.20;99.90;;;;;;5140530;27;20765;-62
2023/08/01 11:25:31;;;;;;;2.97;2.40;;;20.20;99.90;;;;;;5141128;27;20217;-63
2023/08/01 11:27:58;;;;;;;3.30;2.60;;;20.20;99.90;;;;;;5143968;27;20197;-62
2023/08/01 11:30:32;;;;;;;3.13;2.67;;;20.20;99.90;;;;;;5148002;27;20206;-62
2023/08/01 11:32:59;;;;;;;2.70;2.50;;;20.20;99.90;;;;;;5149035;27;20730;-61
2023/08/01 11:35:27;;;;;;;2.90;2.70;;;20.20;99.90;;;;;;5140635;27;20697;-63
2023/08/01 11:37:54;;;;;;;3.88;2.70;;;20.20;99.90;;;;;;5134299;27;20274;-63
2023/08/01 11:40:21;;;;;;;3.15;2.50;;;20.30;99.90;;;;;;5151347;27;20266;-62
2023/08/01 11:42:51;;;;;;;4.28;2.85;;;20.20;99.90;;;;;;5131367;27;20312;-63
2023/08/01 11:45:19;;;;;;;5.60;2.97;;;20.20;99.90;;;;;;5148556;27;20262;-62
2023/08/01 11:47:48;;;;;;;6.30;2.50;;;20.20;99.90;;;;;;5133945;27;20712;-63
2023/08/01 11:50:15;;;;;;;3.72;2.38;;;20.20;99.90;;;;;;5148055;27;20254;-63
2023/08/01 11:52:47;;;;;;;2.97;2.70;;;20.20;99.90;;;;;;5152235;27;20199;-62
2023/08/01 11:55:20;;;;;;;2.60;2.40;;;20.20;99.90;;;;;;5153330;27;20194;-62
2023/08/01 11:57:53;;;;;;;2.65;2.45;;;20.20;99.90;;;;;;5131184;27;20210;-63
2023/08/01 12:00:23;;;;;;;5.80;2.58;;;20.20;99.90;;;;;;5149623;27;20480;-63
2023/08/01 12:02:52;;;;;;;3.00;2.30;;;20.20;99.90;;;;;;5147645;27;21299;-62
2023/08/01 12:05:23;;;;;;;5.00;2.88;;;20.20;99.90;;;;;;5150448;27;20309;-63
2023/08/01 12:07:50;;;;;;;2.58;2.38;;;20.20;99.90;;;;;;5152562;27;20271;-63
2023/08/01 12:10:17;;;;;;;4.72;2.28;;;20.20;99.90;;;;;;5147936;27;20290;-63
2023/08/01 12:12:46;;;;;;;2.50;2.30;;;20.30;99.90;;;;;;5152703;27;20534;-63
2023/08/01 12:15:14;;;;;;;2.40;2.30;;;20.30;99.90;;;;;;5152771;27;20718;-63
2023/08/01 12:17:41;;;;;;;2.70;2.50;;;20.40;99.90;;;;;;5130658;27;20225;-63
2023/08/01 12:20:10;;;;;;;2.97;2.78;;;20.40;99.90;;;;;;5152785;27;20187;-63
2023/08/01 12:22:37;;;;;;;3.30;2.72;;;20.40;99.90;;;;;;5150336;27;20305;-63
2023/08/01 12:25:05;;;;;;;3.13;2.83;;;20.50;99.90;;;;;;5149820;27;20214;-63
2023/08/01 12:27:32;;;;;;;3.60;3.30;;;20.50;99.90;;;;;;5153582;27;20678;-62
2023/08/01 12:29:59;;;;;;;3.78;3.35;;;20.50;99.90;;;;;;5141590;27;20283;-63
2023/08/01 12:32:26;;;;;;;3.80;3.35;;;20.50;99.90;;;;;;5133256;27;20203;-63
2023/08/01 12:34:53;;;;;;;6.55;3.33;;;20.50;99.90;;;;;;5144353;27;20190;-62
2023/08/01 12:37:22;;;;;;;3.45;3.15;;;20.50;99.90;;;;;;5145616;27;20696;-62
2023/08/01 12:39:49;;;;;;;3.05;2.78;;;20.50;99.90;;;;;;5153859;27;20247;-63
2023/08/01 12:42:16;;;;;;;3.75;3.35;;;20.50;99.90;;;;;;5153460;27;20340;-63
2023/08/01 12:44:43;;;;;;;3.67;3.38;;;20.50;99.90;;;;;;5138223;27;20186;-62
2023/08/01 12:47:11;;;;;;;4.18;3.35;;;20.50;99.90;;;;;;5152628;27;20194;-62
2023/08/01 12:49:39;;;;;;;3.20;2.90;;;20.40;99.90;;;;;;5146179;27;20206;-62
2023/08/01 12:52:06;;;;;;;2.85;2.60;;;20.40;99.90;;;;;;5148608;27;20256;-63